Time;durP1;ratioP1;P1;durP2;ratioP2;P2;SDS_P1;SDS_P2;PMS_P1;PMS_P2;Temp;Humidity;BMP_temperature;BMP_pressure;BME280_temperature;BME280_humidity;BME280_pressure;Samples;Min_cycle;Max_cycle;Signal;HPM_P1;HPM_P2
2024/01/27 00:02:04;;;;;;;72.45;66.53;;;;;;;-1.40;100.00;101657.94;5051597;28;20048;-69
2024/01/27 00:04:31;;;;;;;85.68;78.60;;;;;;;-1.64;100.00;101643.03;5060748;28;20094;-69
2024/01/27 00:06:58;;;;;;;73.78;67.78;;;;;;;-1.46;100.00;101645.31;5049693;28;20072;-69
2024/01/27 00:09:25;;;;;;;74.20;68.13;;;;;;;-1.33;100.00;101647.91;5051790;28;20067;-67
2024/01/27 00:11:52;;;;;;;70.18;64.47;;;;;;;-1.59;100.00;101642.72;5049515;28;20053;-67
2024/01/27 00:14:19;;;;;;;77.05;70.95;;;;;;;-1.45;100.00;101658.25;5059534;28;20041;-68
2024/01/27 00:16:47;;;;;;;78.28;72.13;;;;;;;-1.29;100.00;101665.03;5060867;28;20056;-68
2024/01/27 00:19:14;;;;;;;80.65;74.05;;;;;;;-1.12;100.00;101661.25;5051056;28;20643;-68
2024/01/27 00:21:44;;;;;;;86.32;79.68;;;;;;;-1.16;100.00;101661.44;5055002;28;20441;-68
2024/01/27 00:24:11;;;;;;;77.43;71.47;;;;;;;-0.98;100.00;101658.50;5057026;28;20048;-68
2024/01/27 00:26:37;;;;;;;82.47;75.97;;;;;;;-1.30;100.00;101658.13;5065942;28;20061;-68
2024/01/27 00:29:04;;;;;;;80.35;74.05;;;;;;;-1.53;100.00;101654.50;5053222;28;20057;-68
2024/01/27 00:31:31;;;;;;;69.13;63.42;;;;;;;-1.55;100.00;101657.22;5058448;28;20060;-68
2024/01/27 00:33:59;;;;;;;69.97;63.97;;;;;;;-1.36;100.00;101655.94;5061863;28;20055;-67
2024/01/27 00:36:26;;;;;;;82.90;75.85;;;;;;;-0.65;100.00;101646.63;5057359;28;20061;-68
2024/01/27 00:38:53;;;;;;;96.20;88.80;;;;;;;-1.12;100.00;101648.19;5054249;28;20081;-67
2024/01/27 00:41:20;;;;;;;92.93;85.82;;;;;;;-1.29;100.00;101636.34;5056817;28;20732;-68
2024/01/27 00:43:47;;;;;;;81.65;75.05;;;;;;;-1.27;100.00;101624.03;5052919;28;20053;-68
2024/01/27 00:46:14;;;;;;;86.05;79.07;;;;;;;-1.00;100.00;101623.88;5056162;28;20067;-68
2024/01/27 00:48:41;;;;;;;94.97;87.68;;;;;;;-0.60;100.00;101624.47;5058959;28;20044;-68
2024/01/27 00:51:11;;;;;;;93.57;86.43;;;;;;;-0.90;100.00;101624.06;5050309;28;20894;-67
2024/01/27 00:53:38;;;;;;;77.18;70.97;;;;;;;-0.89;100.00;101616.13;5056564;28;20150;-68
2024/01/27 00:56:06;;;;;;;98.72;91.53;;;;;;;-0.87;100.00;101616.84;5055489;28;20048;-68
2024/01/27 00:58:33;;;;;;;95.70;88.05;;;;;;;-0.56;100.00;101610.25;5067714;28;20055;-68
2024/01/27 01:01:01;;;;;;;110.22;102.22;;;;;;;-0.58;100.00;101616.53;5059146;28;20065;-68
2024/01/27 01:03:28;;;;;;;79.78;72.75;;;;;;;-1.39;100.00;101615.31;5064031;28;20554;-67
2024/01/27 01:05:55;;;;;;;79.80;73.95;;;;;;;-1.49;100.00;101604.66;5052734;28;20448;-68
2024/01/27 01:08:23;;;;;;;71.63;66.07;;;;;;;-1.52;100.00;101596.25;5060111;28;20135;-69
2024/01/27 01:10:50;;;;;;;74.68;68.75;;;;;;;-1.63;100.00;101587.41;5057058;28;20052;-68
2024/01/27 01:13:17;;;;;;;62.67;57.67;;;;;;;-1.77;100.00;101578.88;5059896;28;20047;-68
2024/01/27 01:15:44;;;;;;;68.70;63.40;;;;;;;-1.77;100.00;101573.66;5055107;28;20555;-69
2024/01/27 01:18:13;;;;;;;77.85;72.05;;;;;;;-1.76;100.00;101575.31;5063573;28;20053;-69
2024/01/27 01:20:43;;;;;;;74.25;68.25;;;;;;;-1.69;100.00;101571.38;5056892;28;20488;-69
2024/01/27 01:23:10;;;;;;;69.43;63.72;;;;;;;-1.73;100.00;101572.50;5064881;28;20069;-68
2024/01/27 01:25:39;;;;;;;72.63;66.72;;;;;;;-1.91;100.00;101564.16;5057873;28;20543;-70
2024/01/27 01:28:06;;;;;;;78.00;71.63;;;;;;;-1.91;100.00;101564.16;5066871;28;20048;-69
2024/01/27 01:30:33;;;;;;;74.13;68.03;;;;;;;-1.95;100.00;101567.94;5059230;28;20056;-67
2024/01/27 01:33:00;;;;;;;75.90;70.22;;;;;;;-1.61;100.00;101567.28;5050920;28;20438;-67
2024/01/27 01:35:27;;;;;;;80.55;74.55;;;;;;;-1.79;100.00;101568.53;5056096;28;20057;-68
2024/01/27 01:37:53;;;;;;;68.07;62.47;;;;;;;-1.68;100.00;101568.63;5056924;28;20067;-67
2024/01/27 01:40:20;;;;;;;68.32;62.80;;;;;;;-1.64;100.00;101570.09;5057186;28;20052;-68
2024/01/27 01:42:52;;;;;;;68.22;62.58;;;;;;;-1.79;100.00;101567.72;5058202;28;20449;-67
2024/01/27 01:45:20;;;;;;;;;;;;;;;-1.57;100.00;101564.44;5063653;28;20105;-67
2024/01/27 01:47:47;;;;;;;78.10;71.90;;;;;;;-0.86;100.00;101558.53;5056722;28;19924;-68
2024/01/27 01:50:14;;;;;;;75.47;69.40;;;;;;;-1.20;100.00;101555.72;5069189;28;20636;-68
2024/01/27 01:52:41;;;;;;;71.15;65.55;;;;;;;-1.41;100.00;101554.63;5049602;28;20049;-67
2024/01/27 01:55:08;;;;;;;90.78;83.95;;;;;;;-0.51;100.00;101558.56;5072250;28;20052;-67
2024/01/27 01:57:36;;;;;;;100.72;93.32;;;;;;;-0.62;100.00;101560.28;5064404;28;20079;-68
2024/01/27 02:00:06;;;;;;;87.22;80.43;;;;;;;-0.98;100.00;101569.84;5053886;28;20137;-68
2024/01/27 02:02:32;;;;;;;95.53;88.18;;;;;;;-0.05;100.00;101567.34;5064714;28;20084;-67
2024/01/27 02:04:59;;;;;;;98.85;91.30;;;;;;;-0.51;100.00;101562.94;5062182;28;20059;-67
2024/01/27 02:07:26;;;;;;;97.45;89.95;;;;;;;-0.24;100.00;101557.47;5057713;28;20419;-67
2024/01/27 02:09:53;;;;;;;99.47;91.63;;;;;;;0.09;100.00;101561.06;5059346;28;20056;-68
2024/01/27 02:12:20;;;;;;;96.30;88.50;;;;;;;0.20;100.00;101546.22;5064389;28;20059;-67
2024/01/27 02:14:47;;;;;;;107.45;99.07;;;;;;;0.12;100.00;101555.59;5055023;28;20045;-68
2024/01/27 02:17:15;;;;;;;115.30;106.90;;;;;;;0.10;100.00;101562.75;5061874;28;20151;-68
2024/01/27 02:19:42;;;;;;;99.70;91.95;;;;;;;-0.01;100.00;101553.91;5059341;28;20044;-68
2024/01/27 02:22:09;;;;;;;97.70;90.00;;;;;;;-0.14;100.00;101557.59;5059280;28;20076;-68
2024/01/27 02:24:38;;;;;;;117.18;108.35;;;;;;;-0.08;100.00;101557.97;5058041;28;20106;-68
2024/01/27 02:27:05;;;;;;;109.75;100.72;;;;;;;-0.12;100.00;101548.69;5059035;28;20055;-68
2024/01/27 02:29:31;;;;;;;119.07;109.97;;;;;;;-0.17;100.00;101547.38;5057499;28;20413;-67
2024/01/27 02:31:59;;;;;;;108.82;100.38;;;;;;;-0.02;100.00;101543.59;5063421;28;20053;-68
2024/01/27 02:34:25;;;;;;;123.55;112.90;;;;;;;-0.07;100.00;101541.31;5059129;28;20430;-67
2024/01/27 02:36:52;;;;;;;112.25;103.30;;;;;;;-0.33;100.00;101540.69;5067921;28;20135;-68
2024/01/27 02:39:19;;;;;;;102.72;94.85;;;;;;;-0.38;100.00;101529.75;5054489;28;20179;-68
2024/01/27 02:41:47;;;;;;;104.13;95.75;;;;;;;0.04;100.00;101534.47;5063847;28;20045;-68
2024/01/27 02:44:17;;;;;;;107.72;99.50;;;;;;;0.01;100.00;101539.94;5055619;28;20057;-68
2024/01/27 02:46:44;;;;;;;125.18;116.78;;;;;;;0.05;100.00;101534.34;5060313;28;20079;-67
2024/01/27 02:49:14;;;;;;;120.03;111.80;;;;;;;0.04;100.00;101521.41;5058646;28;20055;-68
2024/01/27 02:51:41;;;;;;;103.88;95.88;;;;;;;0.12;100.00;101537.31;5064838;28;20048;-68
2024/01/27 02:54:08;;;;;;;109.00;100.68;;;;;;;0.04;100.00;101518.81;5064944;28;20048;-68
2024/01/27 02:56:35;;;;;;;105.60;97.53;;;;;;;0.04;100.00;101513.56;5057716;28;20171;-68
2024/01/27 02:59:03;;;;;;;114.25;106.00;;;;;;;-0.01;100.00;101517.34;5048399;28;20063;-68
2024/01/27 03:01:30;;;;;;;107.53;99.47;;;;;;;-0.08;100.00;101518.78;5054109;28;20494;-67
2024/01/27 03:03:57;;;;;;;106.88;98.68;;;;;;;-0.09;100.00;101526.72;5054415;28;20045;-68
2024/01/27 03:06:24;;;;;;;97.63;90.13;;;;;;;-0.16;100.00;101517.69;5058550;28;20052;-68
2024/01/27 03:08:51;;;;;;;108.57;100.47;;;;;;;-0.03;100.00;101524.50;5049742;28;20058;-68
2024/01/27 03:11:17;;;;;;;110.63;102.20;;;;;;;-0.21;100.00;101511.97;5054998;28;20430;-67
2024/01/27 03:13:45;;;;;;;105.72;97.43;;;;;;;-0.28;100.00;101509.84;5059904;28;20181;-67
2024/01/27 03:16:14;;;;;;;102.38;94.65;;;;;;;-0.49;100.00;101499.22;5056463;28;20058;-67
2024/01/27 03:18:44;;;;;;;96.53;89.30;;;;;;;-0.39;100.00;101481.13;5063021;28;20057;-69
2024/01/27 03:21:15;;;;;;;90.75;83.35;;;;;;;-0.51;100.00;101466.38;5062817;28;20540;-69
2024/01/27 03:23:41;;;;;;;85.82;78.88;;;;;;;-0.80;100.00;101450.28;5053647;28;20052;-69
2024/01/27 03:26:08;;;;;;;87.90;80.88;;;;;;;-0.80;100.00;101438.06;5056694;28;20052;-69
2024/01/27 03:28:36;;;;;;;98.22;90.32;;;;;;;-0.49;100.00;101436.59;5062050;28;20059;-69
2024/01/27 03:31:03;;;;;;;95.93;88.50;;;;;;;-0.97;100.00;101441.97;5063351;28;20048;-69
2024/01/27 03:33:31;;;;;;;84.57;77.80;;;;;;;-0.84;100.00;101459.31;5051363;28;20048;-69
2024/01/27 03:35:58;;;;;;;86.05;79.22;;;;;;;-0.92;100.00;101465.91;5057672;28;20521;-69
2024/01/27 03:38:25;;;;;;;95.88;88.07;;;;;;;-0.64;100.00;101478.69;5059624;28;20056;-69
2024/01/27 03:40:52;;;;;;;96.65;89.05;;;;;;;-0.46;100.00;101475.50;5058246;28;20048;-69
2024/01/27 03:43:19;;;;;;;98.22;90.63;;;;;;;-0.12;100.00;101478.19;5054792;28;20049;-67
2024/01/27 03:45:45;;;;;;;96.22;88.85;;;;;;;-0.39;100.00;101494.19;5066129;28;20056;-67
2024/01/27 03:48:12;;;;;;;101.38;93.50;;;;;;;0.06;100.00;101509.91;5047827;28;20088;-68
2024/01/27 03:50:42;;;;;;;101.18;93.38;;;;;;;0.33;100.00;101482.56;5050153;28;20071;-67
2024/01/27 03:53:09;;;;;;;103.97;96.28;;;;;;;0.45;100.00;101473.75;5054873;28;20059;-68
2024/01/27 03:55:36;;;;;;;92.72;85.63;;;;;;;0.41;100.00;101454.88;5080324;28;20083;-69
2024/01/27 03:58:03;;;;;;;94.85;87.70;;;;;;;0.32;100.00;101455.59;5055960;28;20053;-68
2024/01/27 04:00:32;;;;;;;91.75;84.53;;;;;;;0.23;100.00;101445.88;5052951;28;20049;-69
2024/01/27 04:02:59;;;;;;;95.20;88.10;;;;;;;0.21;100.00;101440.78;5062049;28;20481;-70
2024/01/27 04:05:26;;;;;;;87.15;80.55;;;;;;;0.12;100.00;101449.34;5058280;28;20060;-69
2024/01/27 04:07:54;;;;;;;93.40;86.35;;;;;;;0.15;100.00;101449.09;5053734;28;20079;-69
2024/01/27 04:10:22;;;;;;;98.40;91.20;;;;;;;0.01;100.00;101441.50;5064031;28;20054;-70
2024/01/27 04:12:48;;;;;;;107.72;99.82;;;;;;;0.42;100.00;101446.09;5066143;28;20057;-69
2024/01/27 04:15:16;;;;;;;112.38;103.97;;;;;;;1.10;100.00;101432.78;5061531;28;20864;-69
2024/01/27 04:17:43;;;;;;;98.43;91.20;;;;;;;0.58;100.00;101421.34;5058036;28;20067;-68
2024/01/27 04:20:13;;;;;;;87.82;81.13;;;;;;;0.49;100.00;101419.47;5070477;28;20050;-67
2024/01/27 04:22:43;;;;;;;85.50;79.00;;;;;;;0.44;100.00;101414.59;5063456;28;20048;-69
2024/01/27 04:25:12;;;;;;;90.22;83.22;;;;;;;0.53;100.00;101407.78;5062436;28;20060;-69
2024/01/27 04:27:39;;;;;;;82.00;75.78;;;;;;;0.29;100.00;101414.03;5059274;28;20053;-69
2024/01/27 04:30:08;;;;;;;74.93;69.00;;;;;;;0.56;100.00;101418.00;5059695;28;20056;-69
2024/01/27 04:32:36;;;;;;;84.35;77.85;;;;;;;0.72;100.00;101409.75;5065480;28;20056;-69
2024/01/27 04:35:03;;;;;;;78.25;72.25;;;;;;;0.74;100.00;101413.06;5057932;28;20055;-69
2024/01/27 04:37:30;;;;;;;79.25;73.25;;;;;;;0.78;100.00;101417.91;5066582;28;20145;-68
2024/01/27 04:39:59;;;;;;;78.75;72.80;;;;;;;0.87;100.00;101406.69;5060786;28;20052;-69
2024/01/27 04:42:28;;;;;;;85.97;79.88;;;;;;;0.94;100.00;101417.50;5080427;28;20079;-69
2024/01/27 04:44:54;;;;;;;88.53;82.05;;;;;;;0.98;100.00;101407.63;5062681;28;20151;-68
2024/01/27 04:47:21;;;;;;;98.22;91.10;;;;;;;1.03;100.00;101419.38;5064550;28;20328;-69
2024/01/27 04:49:48;;;;;;;89.35;83.05;;;;;;;1.07;100.00;101414.72;5057051;28;20150;-69
2024/01/27 04:52:16;;;;;;;80.72;74.70;;;;;;;0.93;100.00;101413.22;5066101;28;20053;-69
2024/01/27 04:54:42;;;;;;;88.90;82.40;;;;;;;1.00;100.00;101408.31;5062349;28;20564;-69
2024/01/27 04:57:09;;;;;;;82.45;76.55;;;;;;;0.90;100.00;101413.47;5063731;28;20051;-69
2024/01/27 04:59:38;;;;;;;73.15;67.70;;;;;;;1.03;100.00;101410.66;5056474;28;20057;-69
2024/01/27 05:02:05;;;;;;;81.05;74.45;;;;;;;0.96;100.00;101414.75;5062941;28;20060;-69
2024/01/27 05:04:32;;;;;;;86.40;80.10;;;;;;;1.10;100.00;101412.66;5051681;28;20513;-69
2024/01/27 05:06:58;;;;;;;82.22;76.13;;;;;;;1.02;100.00;101403.78;5058369;28;20430;-69
2024/01/27 05:09:25;;;;;;;76.22;70.43;;;;;;;1.08;100.00;101405.91;5054161;28;20059;-69
2024/01/27 05:11:53;;;;;;;70.20;64.70;;;;;;;1.06;100.00;101406.03;5058408;28;20204;-69
2024/01/27 05:14:20;;;;;;;76.38;70.68;;;;;;;1.08;100.00;101401.47;5058159;28;20488;-70
2024/01/27 05:16:48;;;;;;;73.53;67.82;;;;;;;1.06;100.00;101399.94;5059714;28;20052;-69
2024/01/27 05:19:16;;;;;;;67.22;61.83;;;;;;;1.16;100.00;101393.00;5051241;28;20045;-69
2024/01/27 05:21:43;;;;;;;71.57;66.07;;;;;;;1.22;100.00;101397.72;5054466;28;20067;-69
2024/01/27 05:24:13;;;;;;;75.72;70.00;;;;;;;1.32;100.00;101398.59;5066420;28;20052;-69
2024/01/27 05:26:43;;;;;;;67.78;62.42;;;;;;;1.33;100.00;101397.66;5063310;28;20139;-69
2024/01/27 05:29:10;;;;;;;61.13;56.33;;;;;;;1.28;100.00;101391.16;5055363;28;20445;-69
2024/01/27 05:31:37;;;;;;;61.63;56.83;;;;;;;1.46;100.00;101394.84;5062723;28;20515;-70
2024/01/27 05:34:05;;;;;;;60.72;56.13;;;;;;;1.48;100.00;101394.69;5068655;28;20438;-69
2024/01/27 05:36:32;;;;;;;63.42;58.83;;;;;;;1.65;100.00;101388.84;5061126;28;20080;-69
2024/01/27 05:38:59;;;;;;;61.83;57.25;;;;;;;1.70;100.00;101394.53;5059672;28;20502;-69
2024/01/27 05:41:29;;;;;;;68.20;63.45;;;;;;;1.77;100.00;101385.19;5063103;28;20051;-69
2024/01/27 05:43:57;;;;;;;70.07;65.07;;;;;;;1.72;100.00;101395.22;5065167;28;20076;-69
2024/01/27 05:46:25;;;;;;;67.32;62.53;;;;;;;1.84;100.00;101398.56;5059235;28;21086;-69
2024/01/27 05:48:53;;;;;;;64.07;59.47;;;;;;;1.95;100.00;101390.63;5056627;28;20102;-69
2024/01/27 05:51:22;;;;;;;61.38;56.97;;;;;;;2.12;100.00;101385.69;5059006;28;20048;-69
2024/01/27 05:53:49;;;;;;;57.80;53.60;;;;;;;2.08;100.00;101385.13;5061937;28;20102;-69
2024/01/27 05:56:16;;;;;;;55.42;51.42;;;;;;;2.16;100.00;101387.09;5058084;28;20056;-69
2024/01/27 05:58:43;;;;;;;52.95;49.10;;;;;;;2.18;100.00;101380.78;5065712;28;20058;-69
2024/01/27 06:01:10;;;;;;;54.00;50.03;;;;;;;2.20;100.00;101391.09;5059757;28;20064;-69
2024/01/27 06:03:37;;;;;;;52.45;48.80;;;;;;;2.25;100.00;101389.75;5052782;28;20072;-69
2024/01/27 06:06:04;;;;;;;52.10;48.50;;;;;;;2.29;100.00;101395.53;5057398;28;20056;-69
2024/01/27 06:08:32;;;;;;;49.75;46.35;;;;;;;2.38;100.00;101399.13;5052647;28;20569;-69
2024/01/27 06:10:59;;;;;;;49.72;46.33;;;;;;;2.28;100.00;101392.09;5059892;28;20052;-69
2024/01/27 06:13:26;;;;;;;50.40;47.00;;;;;;;2.36;100.00;101398.44;5056532;28;20053;-69
2024/01/27 06:15:53;;;;;;;51.78;48.22;;;;;;;2.33;100.00;101396.94;5062912;28;20060;-68
2024/01/27 06:18:20;;;;;;;54.17;50.60;;;;;;;2.35;100.00;101399.41;5050731;28;20049;-68
2024/01/27 06:20:47;;;;;;;50.08;46.78;;;;;;;2.43;100.00;101399.56;5062843;28;20048;-68
2024/01/27 06:23:14;;;;;;;47.10;44.00;;;;;;;2.37;100.00;101408.81;5054527;28;20056;-69
2024/01/27 06:25:45;;;;;;;49.78;46.38;;;;;;;2.41;100.00;101410.19;5058960;28;20059;-69
2024/01/27 06:28:12;;;;;;;49.70;46.40;;;;;;;2.29;100.00;101409.47;5060678;28;20706;-67
2024/01/27 06:30:41;;;;;;;45.90;42.72;;;;;;;2.30;100.00;101412.94;5061343;28;20056;-67
2024/01/27 06:33:08;;;;;;;48.88;45.22;;;;;;;2.57;100.00;101414.06;5058613;28;20052;-69
2024/01/27 06:35:35;;;;;;;44.40;41.35;;;;;;;2.44;100.00;101407.28;5052004;28;20057;-67
2024/01/27 06:38:02;;;;;;;46.67;43.47;;;;;;;2.58;100.00;101407.88;5060569;28;20052;-68
2024/01/27 06:40:29;;;;;;;48.67;45.38;;;;;;;3.02;100.00;101403.84;5064716;28;20465;-68
2024/01/27 06:42:58;;;;;;;47.05;43.75;;;;;;;2.89;100.00;101405.94;5055194;28;20052;-67
2024/01/27 06:45:24;;;;;;;45.28;42.08;;;;;;;2.85;100.00;101415.88;5053378;28;20045;-68
2024/01/27 06:47:51;;;;;;;61.20;56.20;;;;;;;3.04;100.00;101407.16;5053586;28;20064;-69
2024/01/27 06:50:20;;;;;;;58.83;53.55;;;;;;;3.21;100.00;101395.13;5060174;28;20524;-68
2024/01/27 06:52:47;;;;;;;51.15;47.38;;;;;;;3.07;100.00;101393.75;5055598;28;20539;-68
2024/01/27 06:55:14;;;;;;;39.65;36.85;;;;;;;3.11;100.00;101399.56;5056826;28;20524;-69
2024/01/27 06:57:44;;;;;;;40.13;37.40;;;;;;;3.11;100.00;101392.50;5054906;28;20790;-69
2024/01/27 07:00:14;;;;;;;36.38;33.97;;;;;;;3.29;100.00;101389.97;5054093;28;20046;-69
2024/01/27 07:02:42;;;;;;;36.13;33.63;;;;;;;3.26;100.00;101390.28;5052962;28;20138;-69
2024/01/27 07:05:10;;;;;;;36.33;33.72;;;;;;;3.27;100.00;101391.09;5056922;28;20080;-69
2024/01/27 07:07:37;;;;;;;32.60;30.30;;;;;;;3.35;100.00;101389.41;5054752;28;20453;-69
2024/01/27 07:10:04;;;;;;;39.65;36.92;;;;;;;3.36;100.00;101388.47;5049701;28;20053;-69
2024/01/27 07:12:31;;;;;;;41.25;38.35;;;;;;;3.38;100.00;101378.63;5058480;28;20064;-69
2024/01/27 07:14:59;;;;;;;39.53;36.83;;;;;;;3.52;100.00;101381.78;5050928;28;20045;-69
2024/01/27 07:17:28;;;;;;;37.08;34.38;;;;;;;3.51;100.00;101378.34;5055350;28;20086;-69
2024/01/27 07:19:55;;;;;;;38.35;35.35;;;;;;;3.54;100.00;101377.19;5063834;28;20044;-69
2024/01/27 07:22:22;;;;;;;42.50;39.38;;;;;;;3.54;100.00;101388.56;5055281;28;20054;-69
2024/01/27 07:24:51;;;;;;;41.83;38.55;;;;;;;3.59;100.00;101385.47;5051100;28;20429;-69
2024/01/27 07:27:18;;;;;;;40.67;37.58;;;;;;;3.51;100.00;101394.09;5051421;28;20454;-69
2024/01/27 07:29:45;;;;;;;43.92;40.83;;;;;;;3.65;100.00;101393.59;5051627;28;20060;-69
2024/01/27 07:32:13;;;;;;;43.80;40.60;;;;;;;3.51;100.00;101394.09;5057257;28;20514;-69
2024/01/27 07:34:42;;;;;;;45.00;41.83;;;;;;;3.51;100.00;101396.72;5056046;28;20643;-69
2024/01/27 07:37:09;;;;;;;46.08;42.88;;;;;;;3.59;100.00;101396.00;5050814;28;20111;-69
2024/01/27 07:39:36;;;;;;;48.60;45.10;;;;;;;3.60;100.00;101406.38;5054597;28;20078;-69
2024/01/27 07:42:03;;;;;;;56.20;51.67;;;;;;;3.55;100.00;101400.72;5056666;28;20132;-69
2024/01/27 07:44:30;;;;;;;57.47;53.58;;;;;;;3.46;100.00;101404.19;5059397;28;20048;-69
2024/01/27 07:46:57;;;;;;;64.03;59.63;;;;;;;3.54;100.00;101399.06;5050523;28;20048;-69
2024/01/27 07:49:25;;;;;;;67.82;63.15;;;;;;;3.59;100.00;101404.69;5053141;28;20061;-69
2024/01/27 07:51:55;;;;;;;76.60;71.40;;;;;;;3.65;100.00;101406.75;5048142;28;20423;-68
2024/01/27 07:54:22;;;;;;;80.05;74.10;;;;;;;3.60;100.00;101408.13;5048117;28;20094;-68
2024/01/27 07:56:50;;;;;;;89.65;83.65;;;;;;;3.56;100.00;101406.78;5054189;28;20059;-68
2024/01/27 07:59:17;;;;;;;104.57;97.78;;;;;;;3.53;100.00;101404.44;5059796;28;20056;-68
2024/01/27 08:01:44;;;;;;;108.65;101.45;;;;;;;3.44;100.00;101417.44;5051400;28;20060;-69
2024/01/27 08:04:11;;;;;;;112.72;105.15;;;;;;;3.44;100.00;101406.13;5053602;28;20048;-69
2024/01/27 08:06:48;;;;;;;116.53;108.75;;;;;;;3.29;100.00;101415.41;5050601;28;20540;-68
2024/01/27 08:09:17;;;;;;;134.63;125.55;;;;;;;3.33;100.00;101417.63;5056404;28;20608;-69
2024/01/27 08:11:44;;;;;;;142.75;133.18;;;;;;;3.33;100.00;101420.25;5056220;28;20045;-69
2024/01/27 08:14:11;;;;;;;144.38;134.77;;;;;;;3.39;100.00;101424.13;5063017;28;20052;-67
2024/01/27 08:16:38;;;;;;;148.27;138.07;;;;;;;3.38;100.00;101418.03;5058941;28;20053;-67
2024/01/27 08:19:05;;;;;;;163.18;151.48;;;;;;;3.46;100.00;101424.38;5056127;28;20059;-68
2024/01/27 08:21:32;;;;;;;164.35;152.80;;;;;;;3.43;100.00;101428.94;5053401;28;20060;-68
2024/01/27 08:23:59;;;;;;;171.73;159.48;;;;;;;3.54;100.00;101430.59;5054310;28;20048;-67
2024/01/27 08:26:28;;;;;;;182.18;169.13;;;;;;;3.63;100.00;101436.75;5062911;28;20059;-67
2024/01/27 08:28:56;;;;;;;184.35;171.18;;;;;;;3.80;100.00;101430.75;5060082;28;20713;-68
2024/01/27 08:31:23;;;;;;;183.13;169.52;;;;;;;3.74;100.00;101436.59;5063120;28;20053;-68
2024/01/27 08:33:50;;;;;;;187.52;174.30;;;;;;;3.74;100.00;101433.13;5055623;28;20048;-67
2024/01/27 08:36:17;;;;;;;206.07;191.60;;;;;;;3.85;100.00;101427.72;5061643;28;20064;-67
2024/01/27 08:38:44;;;;;;;212.30;197.05;;;;;;;3.84;100.00;101431.28;5048023;28;20063;-67
2024/01/27 08:41:11;;;;;;;184.45;170.88;;;;;;;3.94;100.00;101436.53;5065743;28;20131;-67
2024/01/27 08:43:40;;;;;;;194.95;181.13;;;;;;;3.82;100.00;101441.97;5059992;28;20056;-68
2024/01/27 08:46:11;;;;;;;197.13;183.30;;;;;;;3.87;100.00;101436.25;5070059;28;20489;-68
2024/01/27 08:48:38;;;;;;;196.48;182.10;;;;;;;4.08;100.00;101438.66;5063296;28;20061;-68
2024/01/27 08:51:05;;;;;;;218.43;202.43;;;;;;;4.24;100.00;101438.06;5063381;28;20115;-68
2024/01/27 08:53:32;;;;;;;212.55;197.32;;;;;;;4.32;100.00;101431.06;5060158;28;20487;-68
2024/01/27 08:55:58;;;;;;;217.45;202.07;;;;;;;4.43;100.00;101427.41;5060583;28;20077;-68
2024/01/27 08:58:26;;;;;;;221.38;205.80;;;;;;;4.61;100.00;101439.75;5049475;28;20110;-68
2024/01/27 09:00:54;;;;;;;206.50;191.98;;;;;;;4.46;100.00;101444.69;5061003;28;20060;-69
2024/01/27 09:03:21;;;;;;;213.45;197.68;;;;;;;4.71;100.00;101438.69;5056995;28;20055;-69
2024/01/27 09:05:48;;;;;;;209.45;195.20;;;;;;;4.67;100.00;101434.72;5059662;28;20441;-69
2024/01/27 09:08:15;;;;;;;212.63;198.15;;;;;;;4.89;100.00;101443.13;5060883;28;20052;-69
2024/01/27 09:10:42;;;;;;;210.07;196.05;;;;;;;4.91;100.00;101434.13;5057575;28;20121;-69
2024/01/27 09:13:09;;;;;;;196.25;182.52;;;;;;;4.80;100.00;101436.97;5065712;28;20060;-69
2024/01/27 09:15:36;;;;;;;196.18;182.50;;;;;;;4.80;100.00;101437.78;5066618;28;20063;-69
2024/01/27 09:18:05;;;;;;;177.10;165.18;;;;;;;4.64;100.00;101442.09;5055982;28;20442;-69
2024/01/27 09:20:32;;;;;;;159.13;148.23;;;;;;;4.61;100.00;101434.50;5054390;28;20052;-69
2024/01/27 09:22:59;;;;;;;149.73;139.90;;;;;;;4.76;100.00;101430.38;5062192;28;20048;-69
2024/01/27 09:25:27;;;;;;;147.07;137.38;;;;;;;4.60;100.00;101436.31;5051378;28;20049;-69
2024/01/27 09:27:55;;;;;;;149.45;139.65;;;;;;;4.61;100.00;101430.06;5067358;28;20048;-69
2024/01/27 09:30:22;;;;;;;143.73;134.32;;;;;;;4.57;100.00;101429.53;5053167;28;20102;-68
2024/01/27 09:32:51;;;;;;;140.65;131.38;;;;;;;4.44;100.00;101442.19;5060973;28;20113;-68
2024/01/27 09:35:20;;;;;;;150.85;138.23;;;;;;;4.46;100.00;101442.88;5062462;28;20057;-68
2024/01/27 09:37:47;;;;;;;139.50;130.20;;;;;;;4.36;100.00;101437.69;5057572;28;20040;-67
2024/01/27 09:40:14;;;;;;;132.48;123.80;;;;;;;4.42;100.00;101438.91;5063403;28;20063;-68
2024/01/27 09:42:47;;;;;;;128.30;119.80;;;;;;;4.55;100.00;101434.09;5065004;28;20418;-68
2024/01/27 09:45:14;;;;;;;147.32;137.73;;;;;;;4.55;100.00;101439.38;5059971;28;20131;-68
2024/01/27 09:47:43;;;;;;;113.72;106.38;;;;;;;4.65;100.00;101447.19;5054349;28;20044;-68
2024/01/27 09:50:15;;;;;;;131.25;122.55;;;;;;;4.57;100.00;101439.22;5061944;28;20131;-67
2024/01/27 09:52:43;;;;;;;137.40;128.10;;;;;;;4.57;100.00;101453.22;5045562;28;20098;-68
2024/01/27 09:55:11;;;;;;;134.32;125.30;;;;;;;4.53;100.00;101448.38;5047728;28;20449;-68
2024/01/27 09:57:42;;;;;;;109.07;102.07;;;;;;;4.57;100.00;101444.50;5050540;28;20448;-68
2024/01/27 10:00:13;;;;;;;72.22;67.72;;;;;;;4.51;100.00;101439.81;5061488;28;20055;-68
2024/01/27 10:02:41;;;;;;;82.93;77.63;;;;;;;4.47;100.00;101451.59;5056150;28;20072;-68
2024/01/27 10:05:10;;;;;;;116.72;109.25;;;;;;;4.42;100.00;101464.34;5068657;28;20045;-69
2024/01/27 10:07:37;;;;;;;94.93;88.93;;;;;;;4.42;100.00;101457.31;5053521;28;20051;-69
2024/01/27 10:10:06;;;;;;;105.70;98.15;;;;;;;4.53;100.00;101464.16;5057564;28;20052;-69
2024/01/27 10:12:39;;;;;;;103.63;96.88;;;;;;;4.58;100.00;101461.94;5058899;28;20066;-69
2024/01/27 10:15:07;;;;;;;104.68;97.78;;;;;;;4.63;100.00;101467.59;5062240;28;20056;-70
2024/01/27 10:17:36;;;;;;;91.05;85.00;;;;;;;4.50;100.00;101459.19;5059263;28;20118;-68
2024/01/27 10:20:04;;;;;;;105.18;98.20;;;;;;;4.52;100.00;101473.03;5061150;28;20119;-68
2024/01/27 10:22:40;;;;;;;118.78;110.97;;;;;;;4.54;100.00;101468.47;5055158;28;20059;-68
2024/01/27 10:25:12;;;;;;;125.60;117.10;;;;;;;4.55;100.00;101470.13;5058174;28;20441;-68
2024/01/27 10:27:41;;;;;;;138.57;129.13;;;;;;;4.52;100.00;101468.59;5063934;28;20056;-67
2024/01/27 10:30:17;;;;;;;144.93;135.05;;;;;;;4.54;100.00;101468.47;5054589;28;20048;-68
2024/01/27 10:32:44;;;;;;;147.45;137.57;;;;;;;4.63;100.00;101470.22;5053829;28;20048;-68
2024/01/27 10:35:14;;;;;;;136.55;127.45;;;;;;;4.78;100.00;101470.50;5054201;28;20044;-68
2024/01/27 10:37:41;;;;;;;116.65;109.15;;;;;;;4.51;100.00;101463.50;5047142;28;20867;-68
2024/01/27 10:40:12;;;;;;;81.07;75.75;;;;;;;4.85;100.00;101468.94;5054902;28;20044;-68
2024/01/27 10:42:39;;;;;;;106.22;99.20;;;;;;;4.86;100.00;101475.03;5051009;28;20056;-68
2024/01/27 10:45:07;;;;;;;136.40;127.18;;;;;;;4.75;100.00;101476.91;5053712;28;20048;-69
2024/01/27 10:47:34;;;;;;;142.98;133.45;;;;;;;4.76;100.00;101481.19;5051607;28;20053;-69
2024/01/27 10:50:02;;;;;;;120.75;112.65;;;;;;;4.93;100.00;101481.34;5058059;28;20060;-68
2024/01/27 10:52:32;;;;;;;126.85;118.40;;;;;;;4.81;100.00;101478.09;5050998;28;20143;-69
2024/01/27 10:55:00;;;;;;;157.93;147.43;;;;;;;4.66;100.00;101472.53;5054695;28;20493;-70
2024/01/27 10:57:31;;;;;;;154.40;144.23;;;;;;;4.77;100.00;101468.84;5060216;28;20574;-68
2024/01/27 10:59:58;;;;;;;162.55;151.73;;;;;;;4.65;100.00;101475.31;5059909;28;20052;-69
2024/01/27 11:02:25;;;;;;;156.15;145.40;;;;;;;4.61;100.00;101472.16;5056630;28;20061;-69
2024/01/27 11:04:55;;;;;;;176.15;164.30;;;;;;;4.54;100.00;101468.47;5055669;28;20415;-68